createdAt,value
2019-03-08T00:00:21.500Z,43.58
2019-03-08T00:01:21.533Z,43.51
2019-03-08T00:02:21.465Z,43.54
2019-03-08T00:03:21.399Z,43.58
2019-03-08T00:04:21.453Z,43.51
2019-03-08T00:05:21.317Z,43.57
2019-03-08T00:06:21.438Z,43.53
2019-03-08T00:07:21.516Z,43.6
2019-03-08T00:08:21.380Z,43.56
2019-03-08T00:09:21.389Z,43.52
2019-03-08T00:10:21.534Z,43.48
2019-03-08T00:11:21.311Z,43.54
2019-03-08T00:12:21.359Z,43.52
2019-03-08T00:13:21.488Z,43.54
2019-03-08T00:14:21.347Z,43.55
2019-03-08T00:15:21.394Z,43.59
2019-03-08T00:16:21.521Z,43.53
2019-03-08T00:17:21.336Z,43.53
2019-03-08T00:18:21.423Z,43.55
2019-03-08T00:19:21.481Z,43.53
2019-03-08T00:20:21.403Z,43.5
2019-03-08T00:21:21.394Z,43.59
2019-03-08T00:22:21.796Z,43.55
2019-03-08T00:23:21.346Z,43.59
2019-03-08T00:24:21.369Z,43.54
2019-03-08T00:25:21.505Z,43.55
2019-03-08T00:26:21.370Z,43.58
2019-03-08T00:27:21.542Z,43.58
2019-03-08T00:28:21.504Z,43.55
2019-03-08T00:29:22.236Z,43.54
2019-03-08T00:30:21.395Z,43.54
2019-03-08T00:31:21.532Z,43.55
2019-03-08T00:32:21.337Z,43.54
2019-03-08T00:33:21.357Z,43.57
2019-03-08T00:34:21.490Z,43.57
2019-03-08T00:35:21.309Z,43.54
2019-03-08T00:36:21.391Z,43.51
2019-03-08T00:37:21.465Z,43.56
2019-03-08T00:38:21.322Z,43.49
2019-03-08T00:39:21.368Z,43.54
2019-03-08T00:40:21.508Z,43.54
2019-03-08T00:41:21.300Z,43.53
2019-03-08T00:42:21.481Z,43.52
2019-03-08T00:43:21.518Z,43.52
2019-03-08T00:44:21.295Z,43.5
2019-03-08T00:45:21.379Z,43.53
2019-03-08T00:46:21.519Z,43.54
2019-03-08T00:47:21.299Z,43.51
2019-03-08T00:48:21.432Z,43.58
2019-03-08T00:49:21.459Z,43.52
2019-03-08T00:50:21.346Z,43.5
2019-03-08T00:51:21.405Z,43.54
2019-03-08T00:52:21.502Z,43.54
2019-03-08T00:53:21.371Z,43.54
2019-03-08T00:54:21.386Z,43.52
2019-03-08T00:55:21.499Z,43.58
2019-03-08T00:56:21.307Z,43.54
2019-03-08T00:57:21.486Z,43.53
2019-03-08T00:58:21.504Z,43.52
2019-03-08T00:59:21.360Z,43.52
2019-03-08T01:00:21.365Z,43.49
2019-03-08T01:01:21.498Z,43.54
2019-03-08T01:02:21.325Z,43.55
2019-03-08T01:03:21.487Z,43.5
2019-03-08T01:04:21.482Z,43.54
2019-03-08T01:05:21.324Z,43.52
2019-03-08T01:06:21.397Z,43.53
2019-03-08T01:07:21.799Z,43.54
2019-03-08T01:08:21.365Z,43.49
2019-03-08T01:09:21.411Z,43.53
2019-03-08T01:10:21.533Z,43.54
2019-03-08T01:11:21.774Z,43.54
2019-03-08T01:12:21.582Z,43.54
2019-03-08T01:13:21.513Z,43.53
2019-03-08T01:14:21.381Z,43.51
2019-03-08T01:15:21.430Z,43.48
2019-03-08T01:16:21.331Z,43.52
2019-03-08T01:17:21.336Z,43.51
2019-03-08T01:18:21.433Z,43.54
2019-03-08T01:19:21.554Z,43.56
2019-03-08T01:20:21.319Z,43.53
2019-03-08T01:21:21.384Z,43.51
2019-03-08T01:22:21.613Z,43.53
2019-03-08T01:23:21.340Z,43.53
2019-03-08T01:24:21.389Z,43.51
2019-03-08T01:25:21.819Z,43.56
2019-03-08T01:26:21.289Z,43.53
2019-03-08T01:27:21.385Z,43.54
2019-03-08T01:28:21.565Z,43.56
2019-03-08T01:29:21.353Z,43.56
2019-03-08T01:30:21.426Z,43.52
2019-03-08T01:31:21.484Z,43.5
2019-03-08T01:32:21.352Z,43.51
2019-03-08T01:33:21.563Z,43.56
2019-03-08T01:34:21.505Z,43.54
2019-03-08T01:35:23.254Z,43.59
2019-03-08T01:36:21.385Z,43.5
2019-03-08T01:37:21.552Z,43.47
2019-03-08T01:38:21.395Z,43.56
2019-03-08T01:39:21.469Z,43.54
2019-03-08T01:40:21.606Z,43.52
2019-03-08T01:41:21.396Z,43.46
2019-03-08T01:42:21.599Z,43.53
2019-03-08T01:43:23.619Z,43.52
2019-03-08T01:44:21.356Z,43.54
2019-03-08T01:45:21.386Z,43.54
2019-03-08T01:46:21.673Z,43.51
2019-03-08T01:47:21.380Z,43.54
2019-03-08T01:48:21.373Z,43.54
2019-03-08T01:49:21.549Z,43.5
2019-03-08T01:50:21.310Z,43.54
2019-03-08T01:51:23.471Z,43.56
2019-03-08T01:52:21.517Z,43.55
2019-03-08T01:53:21.298Z,43.55
2019-03-08T01:54:21.445Z,43.57
2019-03-08T01:55:21.552Z,43.55
2019-03-08T01:56:21.603Z,43.61
2019-03-08T01:57:21.348Z,43.59
2019-03-08T01:58:21.524Z,43.58
2019-03-08T01:59:23.324Z,43.55
2019-03-08T02:00:21.487Z,43.54
2019-03-08T02:01:21.494Z,43.57
2019-03-08T02:02:21.357Z,43.55
2019-03-08T02:03:21.394Z,43.5
2019-03-08T02:04:21.492Z,43.5
2019-03-08T02:05:21.340Z,43.52
2019-03-08T02:06:21.361Z,43.52
2019-03-08T02:07:23.382Z,43.51
2019-03-08T02:08:21.323Z,43.48
2019-03-08T02:09:21.468Z,43.5
2019-03-08T02:10:21.512Z,43.54
2019-03-08T02:11:21.612Z,43.53
2019-03-08T02:12:21.384Z,43.58
2019-03-08T02:13:21.529Z,43.55
2019-03-08T02:14:21.340Z,43.53
2019-03-08T02:15:23.643Z,43.52
2019-03-08T02:16:21.562Z,43.54
2019-03-08T02:17:21.318Z,43.48
2019-03-08T02:18:21.383Z,43.46
2019-03-08T02:19:21.477Z,43.49
2019-03-08T02:20:21.308Z,43.51
2019-03-08T02:21:21.465Z,43.53
2019-03-08T02:22:23.874Z,43.52
2019-03-08T02:23:23.188Z,43.53
2019-03-08T02:24:21.357Z,43.54
2019-03-08T02:25:21.472Z,43.55
2019-03-08T02:26:21.392Z,43.54
2019-03-08T02:27:21.397Z,43.54
2019-03-08T02:28:21.472Z,43.55
2019-03-08T02:29:21.353Z,43.51
2019-03-08T02:30:21.502Z,43.54
2019-03-08T02:31:23.657Z,43.56
2019-03-08T02:32:21.325Z,43.57
2019-03-08T02:33:21.423Z,43.51
2019-03-08T02:34:21.557Z,43.55
2019-03-08T02:35:21.345Z,43.55
2019-03-08T02:36:21.464Z,43.47
2019-03-08T02:37:21.661Z,43.49
2019-03-08T02:38:21.501Z,43.55
2019-03-08T02:39:24.534Z,43.47
2019-03-08T02:40:21.517Z,43.54
2019-03-08T02:41:21.332Z,43.53
2019-03-08T02:42:21.346Z,43.52
2019-03-08T02:43:21.528Z,43.53
2019-03-08T02:44:21.319Z,43.49
2019-03-08T02:45:21.450Z,43.49
2019-03-08T02:46:21.585Z,43.53
2019-03-08T02:47:23.156Z,43.52
2019-03-08T02:48:21.358Z,43.56
2019-03-08T02:49:21.535Z,43.56
2019-03-08T02:50:21.379Z,43.54
2019-03-08T02:51:21.370Z,43.56
2019-03-08T02:52:21.426Z,43.51
2019-03-08T02:53:21.320Z,43.52
2019-03-08T02:54:21.357Z,43.5
2019-03-08T02:55:23.419Z,43.54
2019-03-08T02:56:21.278Z,43.49
2019-03-08T02:57:21.450Z,43.52
2019-03-08T02:58:21.456Z,43.5
2019-03-08T02:59:21.306Z,43.5
2019-03-08T03:00:21.482Z,43.51
2019-03-08T03:01:21.478Z,43.56
2019-03-08T03:02:21.330Z,43.49
2019-03-08T03:03:23.273Z,43.47
2019-03-08T03:04:21.703Z,43.51
2019-03-08T03:05:21.250Z,43.54
2019-03-08T03:06:21.344Z,43.5
2019-03-08T03:07:21.212Z,43.49
2019-03-08T03:08:21.303Z,43.54
2019-03-08T03:09:21.536Z,43.53
2019-03-08T03:10:21.428Z,43.53
2019-03-08T03:11:21.804Z,43.5
2019-03-08T03:12:21.445Z,43.49
2019-03-08T03:13:21.228Z,43.52
2019-03-08T03:14:21.346Z,43.56
2019-03-08T03:15:21.366Z,43.49
2019-03-08T03:16:21.185Z,43.54
2019-03-08T03:17:21.359Z,43.54
2019-03-08T03:18:21.533Z,43.53
2019-03-08T03:19:22.080Z,43.54
2019-03-08T03:20:21.348Z,43.54
2019-03-08T03:21:21.500Z,43.56
2019-03-08T03:22:21.306Z,43.55
2019-03-08T03:23:21.366Z,43.56
2019-03-08T03:24:21.353Z,43.53
2019-03-08T03:25:21.271Z,43.56
2019-03-08T03:26:21.322Z,43.57
2019-03-08T03:27:22.959Z,43.52
2019-03-08T03:28:21.295Z,43.55
2019-03-08T03:29:21.334Z,43.56
2019-03-08T03:30:21.510Z,43.6
2019-03-08T03:31:21.319Z,43.53
2019-03-08T03:32:21.348Z,43.55
2019-03-08T03:33:21.500Z,43.58
2019-03-08T03:34:21.192Z,43.55
2019-03-08T03:35:22.987Z,43.51
2019-03-08T03:36:21.347Z,43.57
2019-03-08T03:37:21.300Z,43.54
2019-03-08T03:38:21.360Z,43.52
2019-03-08T03:39:21.401Z,43.51
2019-03-08T03:40:21.211Z,43.52
2019-03-08T03:41:21.318Z,43.56
2019-03-08T03:42:21.460Z,43.57
2019-03-08T03:43:22.562Z,43.54
2019-03-08T03:44:21.309Z,43.52
2019-03-08T03:45:21.382Z,43.57
2019-03-08T03:46:21.201Z,43.56
2019-03-08T03:47:21.586Z,43.53
2019-03-08T03:48:21.369Z,43.56
2019-03-08T03:49:21.224Z,43.54
2019-03-08T03:50:21.394Z,43.52
2019-03-08T03:51:22.306Z,43.52
2019-03-08T03:52:21.355Z,43.6
2019-03-08T03:53:21.364Z,43.56
2019-03-08T03:54:21.395Z,43.58
2019-03-08T03:55:21.200Z,43.52
2019-03-08T03:56:21.322Z,43.55
2019-03-08T03:57:21.516Z,43.59
2019-03-08T03:58:21.220Z,43.55
2019-03-08T03:59:21.646Z,43.54
2019-03-08T04:00:21.454Z,43.56
2019-03-08T04:01:21.312Z,43.53
2019-03-08T04:02:22.531Z,43.54
2019-03-08T04:03:21.390Z,43.56
2019-03-08T04:04:21.486Z,43.56
2019-03-08T04:05:21.344Z,43.5
2019-03-08T04:06:21.447Z,43.54
2019-03-08T04:07:22.040Z,43.53
2019-03-08T04:08:21.354Z,43.51
2019-03-08T04:09:21.200Z,43.55
2019-03-08T04:10:21.254Z,43.53
2019-03-08T04:11:21.360Z,43.54
2019-03-08T04:12:21.489Z,43.54
2019-03-08T04:13:21.252Z,43.56
2019-03-08T04:14:21.556Z,43.56
2019-03-08T04:15:21.418Z,43.5
2019-03-08T04:16:21.411Z,43.53
2019-03-08T04:17:21.406Z,43.48
2019-03-08T04:18:21.279Z,43.54
2019-03-08T04:19:21.278Z,43.5
2019-03-08T04:20:21.427Z,43.58
2019-03-08T04:21:21.310Z,43.56
2019-03-08T04:22:21.295Z,43.56
2019-03-08T04:23:21.671Z,43.5
2019-03-08T04:24:21.255Z,43.53
2019-03-08T04:25:21.292Z,43.56
2019-03-08T04:26:21.399Z,43.52
2019-03-08T04:27:21.249Z,43.55
2019-03-08T04:28:21.423Z,43.55
2019-03-08T04:29:21.451Z,43.48
2019-03-08T04:30:21.346Z,43.56
2019-03-08T04:31:21.750Z,43.54
2019-03-08T04:32:21.358Z,43.57
2019-03-08T04:33:21.357Z,43.56
2019-03-08T04:34:21.243Z,43.56
2019-03-08T04:35:21.757Z,43.56
2019-03-08T04:36:21.229Z,43.53
2019-03-08T04:37:21.261Z,43.54
2019-03-08T04:38:21.434Z,43.55
2019-03-08T04:39:22.575Z,43.52
2019-03-08T04:40:21.396Z,43.54
2019-03-08T04:41:21.345Z,43.47
2019-03-08T04:42:21.173Z,43.56
2019-03-08T04:43:21.221Z,43.55
2019-03-08T04:44:21.435Z,43.52
2019-03-08T04:45:21.287Z,43.56
2019-03-08T04:46:21.257Z,43.58
2019-03-08T04:47:22.992Z,43.61
2019-03-08T04:48:21.465Z,43.64
2019-03-08T04:49:21.266Z,43.64
2019-03-08T04:50:21.429Z,43.63
2019-03-08T04:51:21.448Z,43.59
2019-03-08T04:52:21.364Z,43.68
2019-03-08T04:53:21.416Z,43.64
2019-03-08T04:54:21.488Z,43.7
2019-03-08T04:55:22.788Z,43.74
2019-03-08T04:56:21.400Z,43.74
2019-03-08T04:57:21.668Z,43.72
2019-03-08T04:58:21.303Z,43.78
2019-03-08T04:59:21.386Z,43.69
2019-03-08T05:00:21.427Z,43.68
2019-03-08T05:01:21.216Z,43.69
2019-03-08T05:02:21.351Z,43.61
2019-03-08T05:03:22.902Z,43.65
2019-03-08T05:04:21.320Z,43.54
2019-03-08T05:05:21.619Z,43.57
2019-03-08T05:06:21.494Z,43.57
2019-03-08T05:07:21.216Z,43.54
2019-03-08T05:08:21.315Z,43.53
2019-03-08T05:09:21.388Z,43.53
2019-03-08T05:10:21.347Z,43.54
2019-03-08T05:11:22.754Z,43.48
2019-03-08T05:12:21.374Z,43.49
2019-03-08T05:13:21.183Z,43.5
2019-03-08T05:14:21.270Z,43.53
2019-03-08T05:15:21.481Z,43.52
2019-03-08T05:16:21.193Z,43.46
2019-03-08T05:17:21.299Z,43.49
2019-03-08T05:18:21.376Z,43.51
2019-03-08T05:19:23.120Z,43.48
2019-03-08T05:20:21.313Z,43.48
2019-03-08T05:21:21.329Z,43.46
2019-03-08T05:22:23.477Z,43.49
2019-03-08T05:23:21.303Z,43.45
2019-03-08T05:24:21.459Z,43.44
2019-03-08T05:25:21.221Z,43.4
2019-03-08T05:26:21.326Z,43.37
2019-03-08T05:27:22.971Z,43.41
2019-03-08T05:28:21.208Z,43.44
2019-03-08T05:29:24.639Z,43.5
2019-03-08T05:30:21.351Z,43.41
2019-03-08T05:31:21.152Z,43.54
2019-03-08T05:32:21.317Z,43.41
2019-03-08T05:33:21.381Z,43.54
2019-03-08T05:34:21.137Z,43.57
2019-03-08T05:35:23.438Z,43.54
2019-03-08T05:36:21.320Z,43.57
2019-03-08T05:37:21.120Z,43.54
2019-03-08T05:38:21.257Z,43.51
2019-03-08T05:39:21.472Z,43.53
2019-03-08T05:40:21.199Z,43.53
2019-03-08T05:41:21.281Z,43.48
2019-03-08T05:42:21.359Z,43.45
2019-03-08T05:43:23.088Z,43.55
2019-03-08T05:44:21.305Z,43.46
2019-03-08T05:45:21.334Z,43.44
2019-03-08T05:46:21.168Z,43.48
2019-03-08T05:47:21.272Z,43.49
2019-03-08T05:48:21.371Z,43.42
2019-03-08T05:49:21.182Z,43.46
2019-03-08T05:50:21.288Z,43.46
2019-03-08T05:51:23.247Z,43.46
2019-03-08T05:52:21.137Z,43.46
2019-03-08T05:53:21.282Z,43.39
2019-03-08T05:54:21.357Z,43.43
2019-03-08T05:55:21.176Z,43.37
2019-03-08T05:56:21.301Z,43.44
2019-03-08T05:57:21.327Z,43.46
2019-03-08T05:58:21.101Z,43.36
2019-03-08T05:59:21.259Z,43.48
2019-03-08T06:00:21.353Z,43.43
2019-03-08T06:01:21.167Z,43.46
2019-03-08T06:02:21.305Z,43.41
2019-03-08T06:03:21.456Z,43.42
2019-03-08T06:04:21.222Z,43.39
2019-03-08T06:05:21.305Z,43.4
2019-03-08T06:06:21.628Z,43.35
2019-03-08T06:07:21.291Z,43.44
2019-03-08T06:08:21.310Z,43.38
2019-03-08T06:09:21.480Z,43.32
2019-03-08T06:10:21.179Z,43.39
2019-03-08T06:11:21.327Z,43.35
2019-03-08T06:12:21.513Z,43.37
2019-03-08T06:13:21.287Z,43.32
2019-03-08T06:14:22.798Z,43.41
2019-03-08T06:15:21.454Z,43.36
2019-03-08T06:16:21.391Z,43.36
2019-03-08T06:17:21.297Z,42.28
2019-03-08T06:18:21.480Z,41.86
2019-03-08T06:19:21.200Z,41.63
2019-03-08T06:20:21.350Z,41.5
2019-03-08T06:21:21.495Z,41.21
2019-03-08T06:22:22.752Z,41.12
2019-03-08T06:23:21.308Z,41.17
2019-03-08T06:24:21.446Z,41.1
2019-03-08T06:25:21.178Z,41
2019-03-08T06:26:21.569Z,40.97
2019-03-08T06:27:21.481Z,41.05
2019-03-08T06:28:21.134Z,40.98
2019-03-08T06:29:21.347Z,41.02
2019-03-08T06:30:23.732Z,41.11
2019-03-08T06:31:21.299Z,40.93
2019-03-08T06:32:21.268Z,40.96
2019-03-08T06:33:21.456Z,40.86
2019-03-08T06:34:21.195Z,40.92
2019-03-08T06:35:21.371Z,41.28
2019-03-08T06:36:21.440Z,41.44
2019-03-08T06:37:21.311Z,41.49
2019-03-08T06:38:21.360Z,41.8
2019-03-08T06:39:21.271Z,42.01
2019-03-08T06:40:21.371Z,41.88
2019-03-08T06:41:21.445Z,41.78
2019-03-08T06:42:21.318Z,41.91
2019-03-08T06:43:21.599Z,41.94
2019-03-08T06:44:21.699Z,41.87
2019-03-08T06:45:21.411Z,41.86
2019-03-08T06:46:21.432Z,41.86
2019-03-08T06:47:21.498Z,41.87
2019-03-08T06:48:21.355Z,41.88
2019-03-08T06:49:21.360Z,41.83
2019-03-08T06:50:21.456Z,41.88
2019-03-08T06:51:21.519Z,41.93
2019-03-08T06:52:21.314Z,41.89
2019-03-08T06:53:21.959Z,41.92
2019-03-08T06:54:21.345Z,41.96
2019-03-08T06:55:21.661Z,41.87
2019-03-08T06:56:21.354Z,41.93
2019-03-08T06:57:21.412Z,41.92
2019-03-08T06:58:21.437Z,41.91
2019-03-08T06:59:21.347Z,41.88
2019-03-08T07:00:21.379Z,41.91
2019-03-08T07:01:23.036Z,41.93
2019-03-08T07:02:21.350Z,41.94
2019-03-08T07:03:21.421Z,41.92
2019-03-08T07:04:21.236Z,41.97
2019-03-08T07:05:21.233Z,41.98
2019-03-08T07:06:21.681Z,41.99
2019-03-08T07:07:21.417Z,41.96
2019-03-08T07:08:21.477Z,41.97
2019-03-08T07:09:23.196Z,42.02
2019-03-08T07:10:21.286Z,42
2019-03-08T07:11:21.401Z,41.99
2019-03-08T07:12:21.533Z,42.02
2019-03-08T07:13:21.371Z,41.97
2019-03-08T07:14:21.350Z,42
2019-03-08T07:15:21.218Z,42.02
2019-03-08T07:16:21.316Z,41.99
2019-03-08T07:17:23.260Z,42.04
2019-03-08T07:18:21.225Z,42.04
2019-03-08T07:19:21.414Z,42
2019-03-08T07:20:21.373Z,42
2019-03-08T07:21:21.290Z,42.08
2019-03-08T07:22:21.350Z,42.01
2019-03-08T07:23:28.535Z,42.08
2019-03-08T07:24:21.244Z,42.02
2019-03-08T07:25:21.980Z,42.04
2019-03-08T07:26:21.402Z,42.13
2019-03-08T07:27:21.341Z,42.07
2019-03-08T07:28:21.405Z,42.1
2019-03-08T07:29:21.413Z,42.08
2019-03-08T07:30:21.377Z,42.07
2019-03-08T07:31:21.409Z,42.04
2019-03-08T07:32:21.248Z,42.1
2019-03-08T07:33:22.038Z,42.04
2019-03-08T07:34:21.418Z,42.04
2019-03-08T07:35:21.260Z,42.1
2019-03-08T07:36:21.360Z,42.1
2019-03-08T07:37:21.478Z,42.1
2019-03-08T07:38:21.432Z,42.1
2019-03-08T07:39:21.394Z,42.13
2019-03-08T07:40:21.472Z,42.12
2019-03-08T07:41:21.242Z,42.17
2019-03-08T07:42:21.370Z,42.19
2019-03-08T07:43:21.297Z,42.15
2019-03-08T07:44:21.331Z,42.17
2019-03-08T07:45:21.357Z,42.21
2019-03-08T07:46:21.247Z,42.2
2019-03-08T07:47:21.266Z,42.2
2019-03-08T07:48:21.387Z,42.22
2019-03-08T07:49:24.610Z,42.24
2019-03-08T07:50:21.310Z,42.25
2019-03-08T07:51:21.255Z,42.23
2019-03-08T07:52:21.342Z,42.22
2019-03-08T07:53:21.322Z,42.26
2019-03-08T07:54:21.492Z,42.24
2019-03-08T07:55:21.243Z,42.21
2019-03-08T07:56:21.376Z,42.27
2019-03-08T07:57:22.721Z,42.25
2019-03-08T07:58:21.282Z,42.3
2019-03-08T07:59:21.363Z,42.28
2019-03-08T08:00:21.232Z,42.33
2019-03-08T08:01:21.324Z,42.33
2019-03-08T08:02:21.397Z,42.29
2019-03-08T08:03:21.245Z,42.31
2019-03-08T08:04:21.417Z,42.33
2019-03-08T08:05:23.189Z,42.3
2019-03-08T08:06:21.282Z,42.29
2019-03-08T08:07:21.294Z,42.38
2019-03-08T08:08:21.437Z,42.35
2019-03-08T08:09:21.272Z,42.35
2019-03-08T08:10:21.390Z,42.39
2019-03-08T08:11:21.755Z,42.38
2019-03-08T08:12:21.307Z,42.4
2019-03-08T08:13:23.450Z,42.38
2019-03-08T08:14:21.216Z,42.43
2019-03-08T08:15:21.399Z,42.47
2019-03-08T08:16:21.433Z,42.48
2019-03-08T08:17:21.203Z,42.48
2019-03-08T08:18:21.370Z,42.47
2019-03-08T08:19:21.542Z,42.44
2019-03-08T08:20:21.438Z,43.01
2019-03-08T08:21:28.567Z,42.73
2019-03-08T08:22:21.238Z,43.3
2019-03-08T08:23:21.404Z,43.7
2019-03-08T08:24:21.120Z,43.49
2019-03-08T08:25:21.221Z,43.33
2019-03-08T08:26:21.371Z,43.42
2019-03-08T08:27:21.170Z,43.3
2019-03-08T08:28:21.231Z,43.36
2019-03-08T08:29:22.846Z,43.34
2019-03-08T08:30:21.246Z,43.36
2019-03-08T08:31:21.259Z,43.35
2019-03-08T08:32:21.401Z,43.46
2019-03-08T08:33:21.191Z,43.45
2019-03-08T08:34:22.392Z,43.32
2019-03-08T08:35:21.348Z,43.34
2019-03-08T08:36:21.487Z,43.44
2019-03-08T08:37:23.109Z,43.4
2019-03-08T08:38:21.410Z,43.4
2019-03-08T08:39:21.177Z,43.4
2019-03-08T08:40:21.288Z,43.56
2019-03-08T08:41:21.380Z,43.44
2019-03-08T08:42:21.149Z,43.34
2019-03-08T08:43:21.153Z,43.63
2019-03-08T08:44:21.299Z,43.97
2019-03-08T08:45:22.860Z,43.99
2019-03-08T08:46:21.228Z,43.48
2019-03-08T08:47:21.297Z,43.54
2019-03-08T08:48:21.199Z,43.22
2019-03-08T08:49:21.192Z,43.23
2019-03-08T08:50:21.275Z,43.35
2019-03-08T08:51:21.116Z,43.23
2019-03-08T08:52:21.193Z,43.3
2019-03-08T08:53:22.814Z,43.24
2019-03-08T08:54:21.075Z,43.49
2019-03-08T08:55:21.120Z,43.33
2019-03-08T08:56:21.269Z,43.4
2019-03-08T08:57:21.438Z,43.42
2019-03-08T08:58:21.253Z,43.29
2019-03-08T08:59:21.253Z,43.28
2019-03-08T09:00:21.266Z,43.29
2019-03-08T09:01:22.565Z,43.4
2019-03-08T09:02:21.310Z,43.53
2019-03-08T09:03:21.304Z,43.31
2019-03-08T09:04:21.266Z,43.33
2019-03-08T09:05:21.280Z,43.47
2019-03-08T09:06:21.302Z,43.44
2019-03-08T09:07:21.333Z,43.51
2019-03-08T09:08:21.346Z,43.46
2019-03-08T09:09:23.237Z,43.38
2019-03-08T09:10:21.140Z,43.47
2019-03-08T09:11:21.258Z,43.38
2019-03-08T09:12:21.188Z,43.45
2019-03-08T09:13:21.304Z,43.43
2019-03-08T09:14:21.314Z,43.58
2019-03-08T09:15:21.094Z,43.33
2019-03-08T09:16:21.130Z,43.37
2019-03-08T09:17:23.089Z,43.37
2019-03-08T09:18:21.331Z,43.4
2019-03-08T09:19:21.079Z,43.51
2019-03-08T09:20:21.596Z,43.4
2019-03-08T09:21:21.329Z,43.35
2019-03-08T09:22:21.140Z,43.31
2019-03-08T09:23:21.252Z,43.42
2019-03-08T09:24:21.396Z,43.44
2019-03-08T09:25:22.946Z,43.56
2019-03-08T09:26:21.362Z,43.45
2019-03-08T09:27:21.164Z,43.37
2019-03-08T09:28:21.304Z,43.34
2019-03-08T09:29:21.230Z,43.61
2019-03-08T09:30:21.120Z,43.16
2019-03-08T09:31:21.143Z,43.5
2019-03-08T09:32:21.292Z,43.33
2019-03-08T09:33:23.001Z,43.25
2019-03-08T09:34:21.175Z,43.34
2019-03-08T09:35:21.308Z,43.47
2019-03-08T09:36:21.239Z,43.42
2019-03-08T09:37:21.132Z,43.3
2019-03-08T09:38:21.306Z,43.24
2019-03-08T09:39:21.438Z,43.23
2019-03-08T09:40:21.221Z,43.04
2019-03-08T09:41:23.057Z,43.12
2019-03-08T09:42:21.398Z,43.05
2019-03-08T09:43:21.119Z,43.06
2019-03-08T09:44:21.243Z,43.11
2019-03-08T09:45:21.391Z,43.06
2019-03-08T09:46:21.103Z,42.97
2019-03-08T09:47:21.229Z,43
2019-03-08T09:48:21.054Z,42.96
2019-03-08T09:49:23.012Z,43.05
2019-03-08T09:50:21.178Z,43
2019-03-08T09:51:21.378Z,43.06
2019-03-08T09:52:21.191Z,42.99
2019-03-08T09:53:21.210Z,43.12
2019-03-08T09:54:21.358Z,43.27
2019-03-08T09:55:21.258Z,43.27
2019-03-08T09:56:21.248Z,43.27
2019-03-08T09:57:22.767Z,43.24
2019-03-08T09:58:21.188Z,43.28
2019-03-08T09:59:21.301Z,43.18
2019-03-08T10:00:21.307Z,43.2
2019-03-08T10:01:21.207Z,43.19
2019-03-08T10:02:21.260Z,43.24
2019-03-08T10:03:21.302Z,43.12
2019-03-08T10:04:21.232Z,43.18
2019-03-08T10:05:22.723Z,43.09
2019-03-08T10:06:21.048Z,43.16
2019-03-08T10:07:21.279Z,43.19
2019-03-08T10:08:21.317Z,43.11
2019-03-08T10:09:21.095Z,43.11
2019-03-08T10:10:21.498Z,43.08
2019-03-08T10:11:21.271Z,43.1
2019-03-08T10:12:21.260Z,43.07
2019-03-08T10:13:22.981Z,43.05
2019-03-08T10:14:21.314Z,43.07
2019-03-08T10:15:21.142Z,43.05
2019-03-08T10:16:21.156Z,43.01
2019-03-08T10:17:21.296Z,43.05
2019-03-08T10:18:21.125Z,42.99
2019-03-08T10:19:21.181Z,43
2019-03-08T10:20:21.225Z,43
2019-03-08T10:21:22.833Z,42.96
2019-03-08T10:22:21.275Z,42.94
2019-03-08T10:23:21.347Z,42.96
2019-03-08T10:24:21.227Z,42.99
2019-03-08T10:25:21.184Z,42.96
2019-03-08T10:26:21.281Z,42.93
2019-03-08T10:27:21.312Z,42.9
2019-03-08T10:28:21.179Z,42.92
2019-03-08T10:29:22.992Z,42.98
2019-03-08T10:30:21.061Z,42.89
2019-03-08T10:31:21.086Z,42.92
2019-03-08T10:32:21.284Z,42.94
2019-03-08T10:33:21.412Z,42.94
2019-03-08T10:34:21.120Z,42.86
2019-03-08T10:35:24.647Z,42.86
2019-03-08T10:36:21.297Z,42.93
2019-03-08T10:37:22.951Z,42.89
2019-03-08T10:38:23.366Z,42.91
2019-03-08T10:39:21.053Z,42.88
2019-03-08T10:40:21.151Z,42.84
2019-03-08T10:41:21.268Z,42.88
2019-03-08T10:42:21.149Z,42.87
2019-03-08T10:43:21.182Z,42.85
2019-03-08T10:44:21.274Z,42.79
2019-03-08T10:45:22.804Z,42.85
2019-03-08T10:46:21.149Z,42.82
2019-03-08T10:47:21.234Z,42.79
2019-03-08T10:48:21.370Z,42.85
2019-03-08T10:49:21.303Z,42.8
2019-03-08T10:50:21.374Z,42.82
2019-03-08T10:51:21.103Z,42.78
2019-03-08T10:52:21.300Z,42.79
2019-03-08T10:53:22.966Z,42.79
2019-03-08T10:54:21.175Z,42.71
2019-03-08T10:55:21.164Z,42.71
2019-03-08T10:56:21.218Z,42.74
2019-03-08T10:57:21.162Z,42.74
2019-03-08T10:58:21.161Z,42.75
2019-03-08T10:59:21.253Z,42.7
2019-03-08T11:00:21.098Z,42.73
2019-03-08T11:01:22.917Z,42.76
2019-03-08T11:02:21.349Z,42.74
2019-03-08T11:03:21.145Z,42.7
2019-03-08T11:04:21.151Z,42.71
2019-03-08T11:05:21.411Z,42.67
2019-03-08T11:06:21.186Z,42.73
2019-03-08T11:07:21.169Z,42.64
2019-03-08T11:08:30.494Z,42.73
2019-03-08T11:09:22.768Z,42.67
2019-03-08T11:10:21.187Z,42.74
2019-03-08T11:11:21.540Z,42.66
2019-03-08T11:12:21.181Z,42.62
2019-03-08T11:13:21.091Z,42.65
2019-03-08T11:14:21.277Z,42.66
2019-03-08T11:15:25.334Z,42.61
2019-03-08T11:16:21.109Z,42.65
2019-03-08T11:17:23.134Z,42.64
2019-03-08T11:18:21.175Z,42.61
2019-03-08T11:19:21.231Z,42.57
2019-03-08T11:20:21.291Z,42.59
2019-03-08T11:21:21.133Z,42.62
2019-03-08T11:22:21.295Z,42.58
2019-03-08T11:23:21.311Z,42.58
2019-03-08T11:24:21.186Z,42.62
2019-03-08T11:25:22.474Z,42.61
2019-03-08T11:26:21.314Z,42.55
2019-03-08T11:27:21.138Z,42.59
2019-03-08T11:28:21.737Z,42.54
2019-03-08T11:29:21.250Z,42.62
2019-03-08T11:30:22.181Z,41.05
2019-03-08T11:31:21.132Z,41.75
2019-03-08T11:32:23.799Z,42.19
2019-03-08T11:33:21.947Z,42.65
2019-03-08T11:34:21.243Z,42.63
2019-03-08T11:35:21.168Z,42.3
2019-03-08T11:36:21.367Z,42.37
2019-03-08T11:37:21.140Z,42.57
2019-03-08T11:38:23.047Z,42.48
2019-03-08T11:39:21.264Z,42.43
2019-03-08T11:40:21.121Z,42.6
2019-03-08T11:41:21.616Z,42.8
2019-03-08T11:42:21.367Z,42.68
2019-03-08T11:43:21.213Z,42.75
2019-03-08T11:44:21.239Z,42.78
2019-03-08T11:45:21.250Z,42.89
2019-03-08T11:46:21.147Z,43.01
2019-03-08T11:47:21.256Z,42.98
2019-03-08T11:48:21.266Z,42.93
2019-03-08T11:49:21.276Z,42.89
2019-03-08T11:50:21.211Z,42.65
2019-03-08T11:51:21.276Z,42.53
2019-03-08T11:52:21.097Z,42.5
2019-03-08T11:53:21.176Z,42.5
2019-03-08T11:54:21.372Z,42.51
2019-03-08T11:55:21.081Z,42.49
2019-03-08T11:56:21.177Z,42.51
2019-03-08T11:57:21.242Z,42.53
2019-03-08T11:58:21.572Z,42.56
2019-03-08T11:59:21.191Z,42.5
2019-03-08T12:00:21.176Z,42.63
2019-03-08T12:01:21.291Z,42.57
2019-03-08T12:02:21.167Z,42.62
2019-03-08T12:03:21.184Z,42.52
2019-03-08T12:04:21.297Z,42.57
2019-03-08T12:05:21.134Z,42.52
2019-03-08T12:06:21.646Z,42.58
2019-03-08T12:07:21.334Z,42.52
2019-03-08T12:08:21.076Z,42.46
2019-03-08T12:09:21.193Z,42.48
2019-03-08T12:10:21.145Z,42.5
2019-03-08T12:11:21.147Z,42.5
2019-03-08T12:12:21.286Z,42.54
2019-03-08T12:13:21.020Z,42.55
2019-03-08T12:14:23.446Z,42.62
2019-03-08T12:15:21.129Z,42.82
2019-03-08T12:16:21.732Z,42.77
2019-03-08T12:17:21.152Z,42.96
2019-03-08T12:18:21.279Z,42.89
2019-03-08T12:19:21.057Z,42.93
2019-03-08T12:20:21.143Z,42.94
2019-03-08T12:21:21.296Z,42.91
2019-03-08T12:22:23.400Z,42.86
2019-03-08T12:23:21.129Z,42.94
2019-03-08T12:24:21.177Z,42.91
2019-03-08T12:25:21.301Z,42.9
2019-03-08T12:26:21.154Z,42.91
2019-03-08T12:27:21.284Z,42.98
2019-03-08T12:28:21.298Z,42.84
2019-03-08T12:29:21.128Z,42.92
2019-03-08T12:30:23.149Z,42.94
2019-03-08T12:31:21.280Z,42.8
2019-03-08T12:32:21.131Z,42.71
2019-03-08T12:33:21.179Z,42.84
2019-03-08T12:34:21.302Z,42.85
2019-03-08T12:35:21.090Z,42.74
2019-03-08T12:36:21.118Z,42.68
2019-03-08T12:37:21.315Z,42.73
2019-03-08T12:38:23.105Z,42.87
2019-03-08T12:39:21.147Z,42.89
2019-03-08T12:40:21.251Z,42.51
2019-03-08T12:41:21.143Z,42.53
2019-03-08T12:42:21.245Z,42.51
2019-03-08T12:43:21.285Z,42.44
2019-03-08T12:44:21.262Z,42.48
2019-03-08T12:45:21.073Z,42.5
2019-03-08T12:46:23.176Z,42.42
2019-03-08T12:47:21.287Z,42.51
2019-03-08T12:48:24.559Z,42.47
2019-03-08T12:49:21.120Z,42.5
2019-03-08T12:50:21.258Z,42.52
2019-03-08T12:51:21.215Z,42.48
2019-03-08T12:52:21.174Z,42.45
2019-03-08T12:53:21.225Z,42.52
2019-03-08T12:54:22.075Z,42.57
2019-03-08T12:55:21.286Z,42.72